• Join FlightAware (Why Join?)
  • Login
  • US Flag 
12:25PM EST


 

Airport Tracker/Info


-or-


 

Live Flight TrackerFlight Track Log ✈ BWA794 ✈ 17-Feb-2014 ✈ TTPP / POS - KMIA

Flight Track Log - Related Links

Times and Time Zones

All times are in EST time to prevent confusion due to time zone crossing. See the BWA794 flight status page for this flight to view local times or setup timezone preferences in your user account.

Time Position Orientation Groundspeed Altitude Reporting Facility
EST Latitude Longitude Course Direction KTS MPH feet Rate Location/Type
03:56PM 10.5903 -61.2469 93° East 216 249 3,700  Level FlightAware ADS-B (TTPP / POS)
03:57PM 10.5891 -61.2265 93° East 222 255 4,600 2,824 Climbing FlightAware ADS-B (TTPP / POS)
03:57PM 10.5886 -61.2074 92° East 229 264 5,300 1,920 Climbing FlightAware ADS-B (TTPP / POS)
03:57PM 10.5901 -61.2007 77° East 240 276 5,400 1,385 Climbing FlightAware ADS-B (TTPP / POS)
03:57PM 10.5934 -61.1942 63° Northeast 249 287 5,600 1,091 Climbing FlightAware ADS-B (TTPP / POS)
03:57PM 10.5970 -61.1896 52° Northeast 257 296 5,600 1,091 Level FlightAware ADS-B (TTPP / POS)
03:57PM 10.6023 -61.1846 42° Northeast 263 303 5,800 2,625 Climbing FlightAware ADS-B (TTPP / POS)
03:57PM 10.6140 -61.1789 26° Northeast 264 304 6,300 3,000 Climbing FlightAware ADS-B (TTPP / POS)
03:58PM 10.6228 -61.1776 North 266 306 6,700 2,308 Climbing FlightAware ADS-B (TTPP / POS)
03:58PM 10.6294 -61.1776 360° North 271 312 6,800 1,636 Climbing FlightAware ADS-B (TTPP / POS)
03:58PM 10.6361 -61.1789 349° North 274 315 7,000 2,500 Climbing FlightAware ADS-B (TTPP / POS)
03:58PM 10.6433 -61.1815 340° North 277 319 7,300 2,700 Climbing FlightAware ADS-B (TTPP / POS)
03:58PM 10.6581 -61.1923 324° Northwest 282 325 7,900 2,769 Climbing FlightAware ADS-B (TTPP / POS)
03:58PM 10.6691 -61.2048 312° West 284 327 8,500 2,625 Climbing FlightAware ADS-B (TTPP / POS)
03:59PM 10.6854 -61.2258 308° West 291 335 9,300 2,143 Climbing FlightAware ADS-B (TTPP / POS)
03:59PM 10.7168 -61.2647 309° West 311 358 10,500 1,714 Climbing FlightAware ADS-B (TTPP / POS)
04:00PM 10.7426 -61.2967 309° West 327 376 11,100 1,500 Climbing FlightAware ADS-B (TTPP / POS)
04:00PM 10.7766 -61.3381 310° West 364 419 12,000 2,156 Climbing FlightAware ADS-B (TTPP / POS)
04:01PM 10.8109 -61.3799 310° West 371 427 13,400 2,677 Climbing FlightAware ADS-B (TTPP / POS)
04:01PM 10.8481 -61.4253 310° West 377 434 14,900 2,535 Climbing FlightAware ADS-B (TTPP / POS)
04:02PM 10.8905 -61.4737 312° West 383 441 16,400 2,381 Climbing FlightAware ADS-B (TTPP / POS)
04:02PM 10.9213 -61.5089 312° West 389 448 17,400 2,136 Climbing FlightAware ADS-B (TTPP / POS)
04:03PM 10.9616 -61.5571 310° West 398 458 18,500 1,944 Climbing FlightAware ADS-B (TTPP / POS)
04:04PM 11.0057 -61.6124 309° West 410 472 19,700 1,750 Climbing FlightAware ADS-B (TTPP / POS)
04:05PM 11.0999 -61.7318 309° West 429 494 22,000 1,762 Climbing FlightAware ADS-B (TTPP / POS)
04:06PM 11.1535 -61.7981 309° West 432 497 23,400 412 Climbing FlightAware ADS-B (TTPP / POS)
04:44PM 15.1333 -64.2500 321° Northwest 440 506 38,000 373 Climbing San Juan Center
04:45PM 12.7302 -62.7236 320° Northwest  Level Estimated
04:45PM 15.2167 -64.3167 322° Northwest 430 495 38,000  Level San Juan Center
04:46PM 12.8372 -62.7934 328° Northwest  Level FlightAware Approximate
04:46PM 15.3167 -64.4000 321° Northwest 430 495 38,000  Level San Juan Center
04:47PM 12.9441 -62.8632 328° Northwest  Level FlightAware Approximate
04:47PM 15.4167 -64.4833 321° Northwest 430 495 38,000  Level San Juan Center
04:48PM 13.0510 -62.9331 328° Northwest  Level FlightAware Approximate
04:48PM 15.5000 -64.5500 322° Northwest 430 495 38,000  Level San Juan Center
04:49PM 13.1334 -63.0320 321° Northwest  Level Estimated
04:49PM 15.6000 -64.6333 321° Northwest 430 495 38,000  Level San Juan Center
04:50PM 15.6833 -64.7167 316° Northwest 430 495 38,000  Level San Juan Center
04:51PM 15.7833 -64.7833 327° Northwest 430 495 38,000  Level San Juan Center
04:52PM 15.8833 -64.8667 321° Northwest 420 483 38,000  Level San Juan Center
04:53PM 15.9833 -64.9500 321° Northwest 430 495 38,000  Level San Juan Center
04:54PM 16.0667 -65.0333 316° Northwest 420 483 38,000  Level San Juan Center
04:55PM 16.1500 -65.1000 322° Northwest 430 495 38,000  Level San Juan Center
04:56PM 16.2333 -65.1833 316° Northwest 420 483 38,000  Level San Juan Center
04:57PM 16.3333 -65.2500 327° Northwest 410 472 38,000  Level San Juan Center
04:58PM 16.4167 -65.3167 323° Northwest 410 472 38,000  Level San Juan Center
04:59PM 16.5167 -65.4000 321° Northwest 420 483 38,000  Level San Juan Center
05:00PM 16.6000 -65.4667 323° Northwest 410 472 38,000  Level San Juan Center
05:01PM 16.7000 -65.5500 321° Northwest 410 472 38,000  Level San Juan Center
05:02PM 16.7833 -65.6167 323° Northwest 420 483 38,000  Level San Juan Center
05:03PM 16.8667 -65.7000 316° Northwest 420 483 38,000  Level San Juan Center
05:04PM 16.9667 -65.7833 321° Northwest 420 483 38,000  Level San Juan Center
05:05PM 17.0500 -65.8500 323° Northwest 410 472 38,000  Level San Juan Center
05:06PM 17.1500 -65.9333 321° Northwest 420 483 38,000  Level San Juan Center
05:07PM 17.2333 -66.0167 316° Northwest 410 472 38,000  Level San Juan Center
05:08PM 17.3167 -66.0833 323° Northwest 420 483 38,000  Level San Juan Center
05:09PM 17.4000 -66.1667 316° Northwest 410 472 38,000  Level San Juan Center
05:10PM 17.5000 -66.2500 322° Northwest 410 472 38,000  Level San Juan Center
05:11PM 17.5833 -66.3167 323° Northwest 410 472 38,000  Level San Juan Center
05:12PM 17.6667 -66.4000 316° Northwest 410 472 38,000  Level San Juan Center
05:13PM 17.7667 -66.4667 328° Northwest 410 472 38,000  Level San Juan Center
05:14PM 17.8500 -66.5500 316° Northwest 410 472 38,000  Level San Juan Center
05:15PM 17.9333 -66.6333 316° Northwest 410 472 38,000  Level San Juan Center
05:16PM 18.0333 -66.7000 328° Northwest 410 472 38,000  Level San Juan Center
05:17PM 18.1333 -66.7833 322° Northwest 420 483 38,000  Level San Juan Center
05:18PM 18.2000 -66.8500 316° Northwest 410 472 38,000  Level San Juan Center
05:19PM 18.3000 -66.9333 322° Northwest 410 472 38,000  Level San Juan Center
05:20PM 18.3833 -67.0000 323° Northwest 400 460 38,000  Level San Juan Center
05:21PM 18.4667 -67.0833 317° Northwest 410 472 38,000  Level San Juan Center
05:22PM 18.5500 -67.1667 317° Northwest 420 483 38,000  Level San Juan Center
05:23PM 18.6167 -67.2667 305° West 400 460 38,000  Level San Juan Center
05:24PM 18.6833 -67.3500 310° West 400 460 38,000  Level San Juan Center
05:25PM 18.7500 -67.4500 305° West 400 460 38,000  Level San Juan Center
05:26PM 18.8167 -67.5500 305° West 410 472 38,000  Level San Juan Center
05:27PM 18.8833 -67.6333 310° West 410 472 38,000  Level San Juan Center
05:28PM 18.9500 -67.7333 305° West 400 460 38,000  Level San Juan Center
05:29PM 19.0333 -67.8167 317° Northwest 400 460 38,000  Level San Juan Center
05:30PM 19.1000 -67.9167 305° West 410 472 38,000  Level San Juan Center
05:31PM 19.1667 -68.0167 305° West 400 460 38,000  Level San Juan Center
05:32PM 19.2333 -68.1000 310° West 410 472 38,000  Level San Juan Center
05:33PM 19.3000 -68.2000 305° West 400 460 38,000  Level San Juan Center
05:34PM 19.3833 -68.3000 311° West 410 472 38,000  Level San Juan Center
05:35PM 19.5067 -68.4481 311° West 416 479 38,000  Level Miami Center
05:36PM 19.5722 -68.5450 306° West 410 472 38,000  Level Miami Center
05:37PM 19.6358 -68.6489 303° West 405 466 38,000  Level Miami Center
05:38PM 19.7131 -68.7322 315° West 405 466 38,000  Level Miami Center
05:39PM 19.7822 -68.8272 308° West 405 466 38,000  Level Miami Center
05:40PM 19.8478 -68.9244 306° West 405 466 38,000  Level Miami Center
05:41PM 19.9186 -69.0128 310° West 405 466 38,000  Level Miami Center
05:42PM 19.9858 -69.1081 307° West 405 466 38,000  Level Miami Center
05:43PM 20.0550 -69.2033 308° West 405 466 38,000  Level Miami Center
05:44PM 20.1261 -69.2964 309° West 405 466 38,000  Level Miami Center
05:45PM 20.1892 -69.3944 304° West 405 466 38,000  Level Miami Center
05:46PM 20.2461 -69.4953 301° West 405 466 38,000  Level Miami Center
05:47PM 20.3008 -69.5958 300° West 400 460 38,000  Level Miami Center
05:48PM 20.3578 -69.6989 301° West 400 460 38,000  Level Miami Center
05:49PM 20.4164 -69.8019 301° West 400 460 38,000  Level Miami Center
05:50PM 20.4731 -69.9031 301° West 400 460 38,000  Level Miami Center
05:51PM 20.5278 -70.0064 300° West 400 460 38,000  Level Miami Center
05:52PM 20.5844 -70.1097 300° West 400 460 38,000  Level Miami Center
05:53PM 20.6386 -70.2111 300° West 400 460 38,000  Level Miami Center
05:54PM 20.6953 -70.3167 300° West 405 466 38,000  Level Miami Center
05:55PM 20.7539 -70.4181 302° West 405 466 38,000  Level Miami Center
05:56PM 20.8081 -70.5242 299° West 405 466 38,000  Level Miami Center
05:57PM 20.8664 -70.6256 302° West 405 466 38,000  Level Miami Center
05:58PM 20.9161 -70.7189 300° West 405 466 38,000  Level Miami Center
05:59PM 20.9703 -70.8228 299° West 405 466 38,000  Level Miami Center
06:00PM 21.0242 -70.9272 299° West 405 466 38,000  Level Miami Center
06:01PM 21.0781 -71.0269 300° West 400 460 38,000  Level Miami Center
06:02PM 21.1342 -71.1311 300° West 400 460 38,000  Level Miami Center
06:03PM 21.1900 -71.2333 300° West 400 460 38,000  Level Miami Center
06:04PM 21.2461 -71.3378 300° West 400 460 38,000  Level Miami Center
06:05PM 21.3017 -71.4378 301° West 400 460 38,000  Level Miami Center
06:06PM 21.3594 -71.5403 301° West 400 460 38,000  Level Miami Center
06:07PM 21.4131 -71.6406 300° West 395 455 38,000  Level Miami Center
06:08PM 21.4686 -71.7386 301° West 389 448 38,000  Level Miami Center
06:09PM 21.5219 -71.8436 299° West 389 448 38,000  Level Miami Center
06:10PM 21.5775 -71.9419 301° West 389 448 38,000  Level Miami Center
06:11PM 21.6353 -72.0536 299° West 389 448 38,000  Level Miami Center
06:12PM 21.6886 -72.1589 299° West 389 448 38,000  Level Miami Center
06:13PM 21.7417 -72.2597 300° West 389 448 38,000  Level Miami Center
06:14PM 21.7947 -72.3628 299° West 389 448 38,000  Level Miami Center
06:15PM 21.8500 -72.4683 299° West 394 453 38,000  Level Miami Center
06:16PM 21.9053 -72.5694 301° West 389 448 38,000  Level Miami Center
06:17PM 21.9581 -72.6750 298° West 389 448 38,000  Level Miami Center
06:18PM 22.0133 -72.7808 299° West 389 448 38,000  Level Miami Center
06:19PM 22.0683 -72.8867 299° West 394 453 38,000  Level Miami Center
06:20PM 22.1253 -72.9925 300° West 399 459 38,000  Level Miami Center
06:21PM 22.1800 -73.0983 299° West 404 465 38,000  Level Miami Center
06:22PM 22.2350 -73.2067 299° West 411 473 38,000  Level Miami Center
06:23PM 22.2981 -73.3128 303° West 411 473 38,000  Level Miami Center
06:24PM 22.3547 -73.4211 300° West 411 473 38,000  Level Miami Center
06:25PM 22.3967 -73.5233 294° West 411 473 38,000  Level Miami Center
06:26PM 22.4556 -73.6297 301° West 411 473 38,000  Level Miami Center
06:27PM 22.5119 -73.7383 299° West 411 473 38,000  Level Miami Center
06:28PM 22.5664 -73.8472 298° West 416 479 38,000  Level Miami Center
06:29PM 22.6250 -73.9561 300° West 416 479 38,000  Level Miami Center
06:30PM 22.6833 -74.0675 300° West 416 479 38,000  Level Miami Center
06:31PM 22.7378 -74.1767 298° West 416 479 38,000  Level Miami Center
06:32PM 22.7939 -74.2858 299° West 410 472 38,000  Level Miami Center
06:33PM 22.8458 -74.3953 297° West 410 472 38,000  Level Miami Center
06:34PM 22.9039 -74.5069 299° West 410 472 38,000  Level Miami Center
06:35PM 22.9600 -74.6142 300° West 415 478 38,000  Level Miami Center
06:36PM 23.0158 -74.7261 298° West 415 478 38,000  Level Miami Center
06:37PM 23.0611 -74.8156 299° West 415 478 38,000  Level Miami Center
06:38PM 23.1256 -74.9522 297° West 420 483 38,000  Level Miami Center
06:39PM 23.1769 -75.0644 296° West 420 483 38,000  Level Miami Center
06:40PM 23.2328 -75.1789 298° West 420 483 38,000  Level Miami Center
06:41PM 23.2861 -75.2936 297° West 426 490 38,000  Level Miami Center
06:42PM 23.3417 -75.4083 298° West 426 490 38,000  Level Miami Center
06:43PM 23.3969 -75.5208 298° West 426 490 38,000  Level Miami Center
06:44PM 23.4544 -75.6381 298° West 426 490 38,000  Level Miami Center
06:45PM 23.5222 -75.7667 300° West 433 498 38,000  Level Miami Center
06:46PM 23.5817 -75.8886 298° West 449 517 38,000  Level Miami Center
06:47PM 23.6367 -76.0017 298° West 442 509 38,000  Level Miami Center
06:48PM 23.6939 -76.1192 298° West 437 503 38,000  Level Miami Center
06:49PM 23.7486 -76.2369 297° West 437 503 38,000  Level Miami Center
06:50PM 23.8075 -76.3547 299° West 437 503 38,000  Level Miami Center
06:51PM 23.8561 -76.4567 298° West 431 496 38,000  Level Miami Center
06:52PM 23.9147 -76.5747 299° West 431 496 38,000  Level Miami Center
06:53PM 23.9714 -76.6928 298° West 431 496 38,000  Level Miami Center
06:54PM 24.0258 -76.8089 297° West 431 496 38,000  Level Miami Center
06:55PM 24.0822 -76.9250 298° West 431 496 38,000  Level Miami Center
06:56PM 24.1386 -77.0433 298° West 431 496 38,000  Level Miami Center
06:57PM 24.1947 -77.1572 298° West 431 496 38,000  Level Miami Center
06:58PM 24.2511 -77.2758 298° West 431 496 38,000  Level Miami Center
06:59PM 24.3092 -77.3947 298° West 431 496 38,000  Level Miami Center
07:00PM 24.3631 -77.5136 296° West 431 496 38,000  Level Miami Center
07:01PM 24.4189 -77.6303 298° West 431 496 38,000  Level Miami Center
07:02PM 24.4747 -77.7494 297° West 431 496 38,000  Level Miami Center
07:03PM 24.5283 -77.8661 297° West 431 496 38,000  Level Miami Center
07:04PM 24.5839 -77.9833 298° West 431 496 38,000  Level Miami Center
07:05PM 24.6414 -78.1025 298° West 431 496 38,000  Level Miami Center
07:06PM 24.6969 -78.2222 297° West 431 496 38,000  Level Miami Center
07:07PM 24.7522 -78.3372 298° West 431 496 38,000  Level Miami Center
07:08PM 24.8072 -78.4569 297° West 431 496 38,000 -500 Level Miami Center
07:09PM 24.8625 -78.5767 297° West 431 496 37,000 -2,100 Descending Miami Center
07:10PM 24.9175 -78.6942 297° West 431 496 33,800 -3,150 Descending Miami Center
07:11PM 24.9764 -78.8167 298° West 437 503 30,700 -2,750 Descending Miami Center
07:12PM 25.0292 -78.9344 296° West 437 503 28,300 -2,350 Descending Miami Center
07:13PM 25.0819 -79.0431 298° West 418 481 26,000 -2,300 Descending Miami Center
07:14PM 25.1344 -79.1567 297° West 413 475 23,700 -2,300 Descending Miami Center
07:15PM 25.1808 -79.2631 296° West 407 468 21,400 -2,200 Descending Miami Center
07:16PM 25.2314 -79.3650 299° West 390 449 19,300 -2,139 Descending Miami Center
07:17PM 25.2656 -79.4486 294° West 359 413 17,800 -1,900 Descending Miami Center
07:17PM 25.2758 -79.4603 314° West 369 425 17,400 -2,073 Descending Miami Center
07:18PM 25.3039 -79.5322 293° West 342 394 15,900 -2,200 Descending Miami Center
07:18PM 25.3181 -79.5578 302° West 357 411 15,200 -2,250 Descending Miami Center
07:19PM 25.3439 -79.6250 293° West 362 417 13,800 -2,200 Descending Miami Center
07:19PM 25.3619 -79.6553 303° West 352 405 13,000 -1,701 Descending Miami Center
07:20PM 25.3939 -79.7342 294° West 350 403 11,900 -1,200 Descending Miami Center
07:20PM 25.4083 -79.7506 314° West 352 405 11,800 -590 Descending Miami Center
07:21PM 25.4467 -79.8158 303° West 327 376 11,300 -700 Descending Miami Center
07:21PM 25.4608 -79.8322 314° West 338 389 11,100 -787 Descending Miami Center
07:22PM 25.4994 -79.8978 303° West 328 377 10,500 -700 Descending Miami Center
07:22PM 25.5136 -79.9119 318° Northwest 333 383 10,400 -590 Descending Miami Center
07:23PM 25.5500 -79.9772 302° West 275 316 9,900 -500 Descending Miami Center
07:23PM 25.5603 -79.9822 336° Northwest 312 359 9,900 107 Level Miami Center
07:24PM 25.5925 -80.0383 302° West 276 318 10,000  Climbing Miami Center
07:24PM 25.6067 -80.0525 318° Northwest 291 335 9,900  Descending Miami Center
07:25PM 25.6369 -80.1064 302° West 278 320 10,000  Climbing Miami Center
07:25PM 25.6533 -80.1206 322° Northwest 285 328 9,900 -98 Descending Miami Center
07:26PM 25.6706 -80.1856 286° West 270 311 9,900 -100 Level Miami Center
07:26PM 25.6786 -80.1997 302° West 274 315 9,800 -787 Descending Miami Center
07:27PM 25.6900 -80.2600 282° West 244 281 9,100 -588 Descending Miami Center
07:28PM 25.7069 -80.3294 285° West 239 275 8,800 -1,313 Descending Miami Center
07:29PM 25.7072 -80.4147 270° West 235 270 6,300 -2,063 Descending Miami Center
07:30PM 25.7011 -80.4861 265° West 233 268 4,400 -1,328 Descending Miami Center
07:31PM 25.6975 -80.5458 266° West 186 214 3,600 -689 Descending Miami Center
07:32PM 25.7372 -80.5494 355° North 163 188 3,000 -295 Descending Miami Center
07:33PM 25.7614 -80.5042 59° Northeast 172 198 3,000 -344 Level Miami Center
07:34PM 25.7772 -80.4492 72° East 172 198 2,300 -738 Descending Miami Center
07:35PM 25.7806 -80.4008 86° East 146 168 1,500 -732 Descending Miami Center
07:36PM 25.7794 -80.3639 92° East 124 143 800 -634 Descending Miami Center
07:37PM 25.7844 -80.3247 82° East 122 140 200 -590 Descending Miami Center
07:39PM 25.7833 -80.2833 77° East  Level FlightAware Approximate
07:46PM 25.7954 -80.2901 77° East  Level Estimated